099  
UXUS97 KREV 261353  
SRGREV  
 
SOARING FORECAST  
NATIONAL WEATHER SERVICE - RENO NV  
700 AM PDT FRI MAY 26 2017  
 
THIS SOARING FORECAST IS FOR THE EASTERN SIERRA AND WESTERN NEVADA  
WITH SPECIFIC INDICES FOR THE GREATER RENO AREA.  
 
THIS FORECAST IS PREPARED DAILY BY 700 AM AND IS NOT UPDATED.  
 
FOR CURRENT FLIGHT CONDITIONS...FORECASTS...AND ADVISORIES...ACCESS  
YOUR LOCAL BRIEFING OUTLET OR FLIGHT SERVICE STATION.  
 
*******************************************************************  
FORECASTED LOCAL INDICES FOR RENO: TODAY YESTERDAY  
FORECASTED MAX TEMP AT RENO (DEG F)..... 76 80  
FORECASTED TRIGGER TEMPERATURE (DEG F).. 60 64  
EXCEEDED YESTERDAY BY 955 AM PDT  
FORECASTED MAXIMUM ALTITUDE (FT MSL).... 13800 16800  
FORECASTED SOARING INDEX (FPM).......... 624 1014  
FORECASTED K-INDEX.........VALID 18Z.... 24 16  
FORECASTED K-INDEX.........VALID 00Z.... 26 24  
FORECASTED LIFTED INDEX....VALID 18Z.... 7 6  
FORECASTED LIFTED INDEX....VALID 00Z.... 3 3  
 
AFTERNOON WINDS ALOFT FORECAST  
MSL (FT) WIND/TEMP  
9000 3409/+07  
10000 3309/+04  
12000 3308/-02  
14000 3112/-05  
16000 3017/-09  
18000 3030/-13  
24000 3132/-26  
30000 3134/-42  
34000 3133/-51  
39000 3034/-59  
 
SLIDE MOUNTAIN DATA:  
DATE TIME TEMP DEWPT RH WIND (MPH)  
(F) (F) | DIR SPEED GUST  
2017-05-26 05:20 35 11 23 | 152 15 18  
2017-05-26 05:00 35 11 24 | 149 17 21  
2017-05-26 04:50 35 13 26 | 146 16 21  
2017-05-26 04:30 35 13 26 | 150 15 17  
 
RENO TAF FORECAST:  
KRNO 261120Z 2612/2712 VRB04KT P6SM SKC  
FM262100 34011KT P6SM FEW070  
FM270400 VRB04KT P6SM SKC  
 
CARSON CITY TAF FORECAST:  
KCXP 261120Z 2612/2712 VRB04KT P6SM SKC  
FM261900 32009KT P6SM FEW070  
FM270300 VRB03KT P6SM SKC  
 
OUTLOOK FOR THE RENO-CARSON CITY-MINDEN AREA:   
SATURDAY
 
SUNNY. HIGHS 76 TO 81. LIGHT WINDS BECOMING EAST  
AROUND 10 MPH IN THE AFTERNOON.  
 
SUNRISE AND SUNSET  
MAY 26 2017...........SUNRISE 537 AM PDT SUNSET 816 PM PDT  
MAY 27 2017...........SUNRISE 536 AM PDT SUNSET 817 PM PDT  
 
CLICK HERE TO GO TO PREVIOUS BULLETINS.

The Nexlab NV Page
The Nexlab CA Page Main Text Page